createdAt,value
2022-12-13T00:01:15.536Z,100112.50
2022-12-13T00:03:43.333Z,100116.28
2022-12-13T00:06:11.258Z,100109.13
2022-12-13T00:08:38.984Z,100111.59
2022-12-13T00:11:07.008Z,100108.59
2022-12-13T00:13:35.228Z,100112.34
2022-12-13T00:16:02.948Z,100115.25
2022-12-13T00:18:30.675Z,100112.75
2022-12-13T00:20:59.505Z,100110.38
2022-12-13T00:23:27.185Z,100109.75
2022-12-13T00:25:54.930Z,100100.91
2022-12-13T00:28:22.712Z,100100.91
2022-12-13T00:30:50.514Z,100101.97
2022-12-13T00:33:18.313Z,100101.09
2022-12-13T00:35:46.055Z,100093.97
2022-12-13T00:38:13.763Z,100095.03
2022-12-13T00:40:41.559Z,100096.03
2022-12-13T00:43:09.285Z,100099.59
2022-12-13T00:45:38.267Z,100094.16
2022-12-13T00:48:06.108Z,100094.53
2022-12-13T00:50:33.788Z,100096.25
2022-12-13T00:53:01.555Z,100095.84
2022-12-13T00:55:29.321Z,100101.31
2022-12-13T00:57:57.155Z,100101.31
2022-12-13T01:00:25.787Z,100104.88
2022-12-13T01:02:53.531Z,100099.41
2022-12-13T01:05:46.049Z,100097.75
2022-12-13T01:08:08.962Z,100091.44
2022-12-13T01:10:36.725Z,100086.84
2022-12-13T01:13:04.456Z,100084.13
2022-12-13T01:15:32.276Z,100088.72
2022-12-13T01:18:00.020Z,100086.84
2022-12-13T01:20:27.762Z,100081.97
2022-12-13T01:22:55.546Z,100074.81
2022-12-13T01:25:23.250Z,100080.94
2022-12-13T01:27:50.968Z,100078.59
2022-12-13T01:30:18.748Z,100073.16
2022-12-13T01:32:46.470Z,100072.31
2022-12-13T01:35:14.859Z,100072.69
2022-12-13T01:37:43.136Z,100071.81
2022-12-13T01:40:15.946Z,100064.72
2022-12-13T01:42:44.242Z,100071.19
2022-12-13T01:45:12.065Z,100071.38
2022-12-13T01:47:39.927Z,100065.47
2022-12-13T01:50:07.720Z,100065.00
2022-12-13T01:52:36.027Z,100062.84
2022-12-13T01:55:04.207Z,100063.88
2022-12-13T01:57:32.023Z,100065.75
2022-12-13T02:34:49.523Z,100063.00
2022-12-13T02:37:18.131Z,100059.28
2022-12-13T02:39:46.372Z,100062.00
2022-12-13T02:42:21.578Z,100056.38
2022-12-13T02:44:49.931Z,100061.81
2022-12-13T02:47:22.073Z,100049.03
2022-12-13T02:49:50.335Z,100056.38
2022-12-13T02:52:22.398Z,100054.50
2022-12-13T02:54:50.508Z,100056.38
2022-12-13T02:57:21.778Z,100054.50
2022-12-13T02:59:52.601Z,100053.47
2022-12-13T03:02:21.549Z,100055.38
2022-12-13T03:05:16.890Z,100059.94
2022-12-13T03:07:44.818Z,100054.69
2022-12-13T03:10:12.535Z,100062.66
2022-12-13T03:12:58.049Z,100062.00
2022-12-13T03:15:26.084Z,100065.06
2022-12-13T03:17:53.841Z,100055.03
2022-12-13T03:20:22.756Z,100058.78
2022-12-13T03:22:51.282Z,100057.09
2022-12-13T03:25:31.428Z,100056.25
2022-12-13T03:28:01.128Z,100054.56
2022-12-13T03:30:29.477Z,100056.44
2022-12-13T03:32:57.202Z,100050.53
2022-12-13T03:35:25.344Z,100044.44
2022-12-13T03:38:02.904Z,100047.72
2022-12-13T03:40:30.685Z,100048.94
2022-12-13T03:42:58.477Z,100045.75
2022-12-13T03:45:26.181Z,100043.03
2022-12-13T03:47:54.063Z,100038.81
2022-12-13T03:50:26.861Z,100038.81
2022-12-13T03:52:55.101Z,100031.50
2022-12-13T03:55:23.068Z,100038.44
2022-12-13T03:57:50.832Z,100029.63
2022-12-13T04:00:18.626Z,100030.44
2022-12-13T04:02:46.375Z,100034.66
2022-12-13T04:05:14.327Z,100032.81
2022-12-13T04:07:48.192Z,100038.91
2022-12-13T04:10:26.371Z,100035.16
2022-12-13T04:13:12.093Z,100037.69
2022-12-13T04:15:39.792Z,100029.34
2022-12-13T04:18:07.515Z,100028.78
2022-12-13T04:20:35.206Z,100034.88
2022-12-13T04:23:10.264Z,100031.78
2022-12-13T04:25:38.428Z,100031.56
2022-12-13T04:28:06.435Z,100029.53
2022-12-13T04:30:34.171Z,100026.63
2022-12-13T04:33:01.977Z,100029.00
2022-12-13T04:35:29.881Z,100031.16
2022-12-13T04:37:58.092Z,100033.66
2022-12-13T04:40:26.286Z,100034.50
2022-12-13T04:42:54.686Z,100020.72
2022-12-13T04:45:22.471Z,100026.81
2022-12-13T04:47:50.278Z,100030.22
2022-12-13T04:50:18.021Z,100029.34
2022-12-13T04:52:45.941Z,100031.88
2022-12-13T04:55:13.959Z,100028.31
2022-12-13T04:57:41.892Z,100025.41
2022-12-13T05:00:09.993Z,100017.22
2022-12-13T05:02:37.764Z,100029.81
2022-12-13T05:05:05.514Z,100018.28
2022-12-13T05:07:33.358Z,100023.72
2022-12-13T05:10:01.105Z,100017.63
2022-12-13T05:12:28.935Z,100020.72
2022-12-13T05:14:56.854Z,100015.47
2022-12-13T05:17:24.596Z,100016.50
2022-12-13T05:19:52.396Z,100013.13
2022-12-13T05:22:21.170Z,100017.06
2022-12-13T05:24:49.234Z,100018.13
2022-12-13T05:27:24.748Z,100022.88
2022-12-13T05:30:03.189Z,100030.34
2022-12-13T05:32:42.471Z,100029.91
2022-12-13T05:35:12.387Z,100039.56
2022-12-13T05:37:40.374Z,100033.28
2022-12-13T05:40:08.180Z,100033.06
2022-12-13T05:42:35.962Z,100037.69
2022-12-13T05:45:03.759Z,100030.56
2022-12-13T05:47:31.645Z,100034.78
2022-12-13T05:49:59.525Z,100035.66
2022-12-13T05:52:30.550Z,100040.88
2022-12-13T05:55:01.085Z,100039.03
2022-12-13T05:57:29.512Z,100037.16
2022-12-13T05:59:57.343Z,100048.88
2022-12-13T06:02:25.248Z,100046.59
2022-12-13T06:04:53.195Z,100044.75
2022-12-13T06:07:21.057Z,100045.59
2022-12-13T06:09:48.863Z,100040.16
2022-12-13T06:12:31.543Z,100041.81
2022-12-13T06:15:00.829Z,100035.56
2022-12-13T06:17:29.269Z,100043.06
2022-12-13T06:19:57.132Z,100039.31
2022-12-13T06:22:25.026Z,100040.16
2022-12-13T06:24:52.914Z,100037.44
2022-12-13T06:27:21.153Z,100040.81
2022-12-13T06:29:48.939Z,100047.28
2022-12-13T06:32:16.745Z,100053.75
2022-12-13T06:34:44.537Z,100060.88
2022-12-13T06:37:12.354Z,100065.66
2022-12-13T06:39:40.488Z,100065.66
2022-12-13T06:42:08.496Z,100070.09
2022-12-13T06:44:36.334Z,100077.56
2022-12-13T06:47:11.931Z,100075.91
2022-12-13T06:49:40.992Z,100075.41
2022-12-13T06:52:09.180Z,100079.63
2022-12-13T06:54:36.970Z,100079.84
2022-12-13T06:57:04.736Z,100074.72
2022-12-13T06:59:32.545Z,100077.81
2022-12-13T07:02:03.490Z,100075.94
2022-12-13T07:04:31.889Z,100070.72
2022-12-13T07:07:01.204Z,100065.44
2022-12-13T07:09:29.991Z,100073.81
2022-12-13T07:11:57.736Z,100083.19
2022-12-13T07:14:25.541Z,100082.50
2022-12-13T07:16:59.415Z,100089.63
2022-12-13T07:19:42.347Z,100082.50
2022-12-13T07:22:11.974Z,100083.91
2022-12-13T07:24:39.783Z,100084.94
2022-12-13T07:27:07.576Z,100084.94
2022-12-13T07:29:35.440Z,100083.28
2022-12-13T07:32:03.273Z,100072.41
2022-12-13T07:34:31.104Z,100078.84
2022-12-13T07:37:01.422Z,100084.13
2022-12-13T07:39:29.261Z,100089.56
2022-12-13T07:41:57.064Z,100090.56
2022-12-13T07:44:24.994Z,100091.44
2022-12-13T07:46:52.969Z,100104.66
2022-12-13T07:49:20.891Z,100109.03
2022-12-13T07:51:49.094Z,100114.31
2022-12-13T07:54:16.905Z,100116.19
2022-12-13T07:56:44.695Z,100116.81
2022-12-13T07:59:13.859Z,100114.31
2022-12-13T08:01:41.712Z,100127.72
2022-12-13T08:04:09.948Z,100121.06
2022-12-13T08:06:37.805Z,100121.06
2022-12-13T08:09:05.784Z,100121.06
2022-12-13T08:11:33.658Z,100105.59
2022-12-13T08:14:01.837Z,100099.50
2022-12-13T08:16:30.207Z,100115.63
2022-12-13T08:19:02.365Z,100118.16
2022-12-13T08:21:53.211Z,100116.00
2022-12-13T08:24:19.448Z,100113.28
2022-12-13T08:26:47.213Z,100116.81
2022-12-13T08:29:22.773Z,100108.38
2022-12-13T08:32:01.778Z,100112.81
2022-12-13T08:34:29.874Z,100109.44
2022-12-13T08:37:01.559Z,100107.91
2022-12-13T08:39:34.182Z,100115.41
2022-12-13T08:42:16.680Z,100105.38
2022-12-13T08:44:46.888Z,100110.81
2022-12-13T08:47:23.062Z,100109.31
2022-12-13T08:49:51.745Z,100114.94
2022-12-13T08:52:19.573Z,100100.69
2022-12-13T08:54:47.374Z,100098.34
2022-12-13T08:57:15.779Z,100091.41
2022-12-13T08:59:43.571Z,100100.56
2022-12-13T09:02:11.386Z,100090.56
2022-12-13T09:04:39.200Z,100092.25
2022-12-13T09:07:06.974Z,100091.41
2022-12-13T09:09:34.766Z,100093.91
2022-12-13T09:12:10.325Z,100097.69
2022-12-13T09:14:45.562Z,100093.91
2022-12-13T09:17:14.811Z,100093.28
2022-12-13T09:19:57.763Z,100093.06
2022-12-13T09:22:33.139Z,100089.34
2022-12-13T09:25:02.893Z,100087.63
2022-12-13T09:27:31.042Z,100088.47
2022-12-13T09:30:08.085Z,100089.34
2022-12-13T09:32:35.943Z,100086.81
2022-12-13T09:35:03.716Z,100091.19
2022-12-13T09:37:32.166Z,100087.63
2022-12-13T09:39:59.936Z,100087.47
2022-12-13T09:42:45.042Z,100076.38
2022-12-13T09:45:22.365Z,100077.25
2022-12-13T09:47:50.887Z,100079.78
2022-12-13T09:50:18.752Z,100074.34
2022-12-13T09:52:52.813Z,100076.22
2022-12-13T09:55:29.253Z,100076.97
2022-12-13T09:57:58.167Z,100075.09
2022-12-13T10:00:27.509Z,100077.59
2022-12-13T10:02:55.521Z,100059.44
2022-12-13T10:05:26.115Z,100056.91
2022-12-13T10:08:03.653Z,100070.03
2022-12-13T10:10:31.622Z,100060.84
2022-12-13T10:12:59.482Z,100064.59
2022-12-13T10:15:27.232Z,100067.09
2022-12-13T10:17:55.989Z,100064.38
2022-12-13T10:20:26.076Z,100063.75
2022-12-13T10:23:52.546Z,100067.84
2022-12-13T10:25:42.151Z,100061.59
2022-12-13T10:28:10.105Z,100053.44
2022-12-13T10:30:37.955Z,100052.75
2022-12-13T10:33:06.190Z,100052.59
2022-12-13T10:35:34.703Z,100052.59
2022-12-13T10:38:02.752Z,100042.72
2022-12-13T10:40:31.921Z,100058.03
2022-12-13T10:43:00.773Z,100052.38
2022-12-13T10:45:28.853Z,100050.34
2022-12-13T10:48:02.214Z,100056.16
2022-12-13T10:50:31.749Z,100052.38
2022-12-13T10:53:00.172Z,100054.09
2022-12-13T10:55:28.682Z,100058.03
2022-12-13T10:57:56.467Z,100058.03
2022-12-13T11:00:24.318Z,100063.25
2022-12-13T11:02:52.189Z,100056.97
2022-12-13T11:05:23.278Z,100052.94
2022-12-13T11:07:51.549Z,100053.81
2022-12-13T11:10:23.742Z,100054.66
2022-12-13T11:12:54.939Z,100052.75
2022-12-13T11:15:23.124Z,100052.75
2022-12-13T11:17:51.175Z,100053.59
2022-12-13T11:20:19.132Z,100061.59
2022-12-13T11:22:46.990Z,100054.25
2022-12-13T11:25:14.799Z,100051.53
2022-12-13T11:27:42.628Z,100048.84
2022-12-13T11:30:10.585Z,100048.16
2022-12-13T11:32:38.337Z,100052.59
2022-12-13T11:35:07.859Z,100047.16
2022-12-13T11:37:36.248Z,100041.88
2022-12-13T11:40:04.023Z,100039.16
2022-12-13T11:42:32.029Z,100035.78
2022-12-13T11:45:00.075Z,100026.63
2022-12-13T11:47:27.814Z,100030.19
2022-12-13T11:49:55.656Z,100031.84
2022-12-13T11:52:23.439Z,100034.56
2022-12-13T11:54:51.322Z,100030.19
2022-12-13T11:57:19.126Z,100025.56
2022-12-13T11:59:46.897Z,100013.03
2022-12-13T12:02:16.835Z,100016.22
2022-12-13T12:04:44.884Z,100018.09
2022-12-13T12:07:31.919Z,100018.47
2022-12-13T12:10:00.606Z,100021.34
2022-12-13T12:12:28.532Z,100018.47
2022-12-13T12:14:56.329Z,100014.53
2022-12-13T12:17:37.835Z,100013.19
2022-12-13T12:20:10.170Z,100022.41
2022-12-13T12:22:37.947Z,100013.75
2022-12-13T12:25:05.660Z,100008.81
2022-12-13T12:27:33.426Z,100004.59
2022-12-13T12:30:01.153Z,100011.25
2022-12-13T12:32:28.937Z,100003.72
2022-12-13T12:34:56.768Z,99996.78
2022-12-13T12:37:24.531Z,100000.72
2022-12-13T12:39:52.326Z,100002.41
2022-12-13T12:42:20.152Z,100003.09
2022-12-13T12:44:47.931Z,99987.78
2022-12-13T12:50:03.477Z,99992.56
2022-12-13T12:52:32.399Z,99989.22
2022-12-13T12:55:03.655Z,99991.94
2022-12-13T12:57:31.412Z,99993.13
2022-12-13T13:00:01.711Z,99990.41
2022-12-13T13:02:29.852Z,99988.53
2022-12-13T13:04:57.682Z,99995.00
2022-12-13T13:07:25.406Z,99998.75
2022-12-13T13:09:54.905Z,99993.50
2022-12-13T13:12:29.934Z,99997.06
2022-12-13T13:14:58.383Z,100000.44
2022-12-13T13:17:26.078Z,99995.00
2022-12-13T13:20:01.437Z,99997.72
2022-12-13T13:22:42.787Z,99997.25
2022-12-13T13:25:12.292Z,99999.28
2022-12-13T13:27:40.012Z,99996.41
2022-12-13T13:30:07.796Z,99993.88
2022-12-13T13:32:35.590Z,100002.00
2022-12-13T13:35:03.368Z,99995.06
2022-12-13T13:37:31.092Z,99992.56
2022-12-13T13:39:58.863Z,99998.84
2022-12-13T13:42:26.588Z,100000.50
2022-12-13T13:44:54.323Z,99998.84
2022-12-13T13:47:22.287Z,100008.03
2022-12-13T13:49:50.063Z,100010.09
2022-12-13T13:52:26.065Z,100005.31
2022-12-13T13:54:54.302Z,100017.19
2022-12-13T13:57:28.892Z,100016.19
2022-12-13T14:00:11.257Z,100019.72
2022-12-13T14:02:39.044Z,100017.84
2022-12-13T14:05:06.854Z,100013.47
2022-12-13T14:07:34.784Z,100013.09
2022-12-13T14:10:02.628Z,100003.91
2022-12-13T14:12:30.406Z,100002.22
2022-12-13T14:15:01.346Z,100005.59
2022-12-13T14:17:29.590Z,100017.47
2022-12-13T14:19:57.425Z,100005.59
2022-12-13T14:22:25.237Z,100005.59
2022-12-13T14:24:52.953Z,100009.72
2022-12-13T14:27:20.789Z,100009.72
2022-12-13T14:29:58.582Z,100004.28
2022-12-13T14:32:27.537Z,100005.94
2022-12-13T14:34:55.435Z,99997.63
2022-12-13T14:37:23.245Z,99995.94
2022-12-13T14:39:51.186Z,99994.72
2022-12-13T14:42:19.773Z,99989.63
2022-12-13T14:44:47.495Z,99987.50
2022-12-13T14:47:15.321Z,99982.50
2022-12-13T14:49:48.968Z,99991.81
2022-12-13T14:52:26.706Z,99991.00
2022-12-13T14:54:58.125Z,99988.81
2022-12-13T14:57:27.051Z,99993.59
2022-12-13T14:59:55.275Z,99996.84
2022-12-13T15:02:30.844Z,99990.69
2022-12-13T15:04:59.490Z,99985.06
2022-12-13T15:07:27.530Z,99989.44
2022-12-13T15:09:55.239Z,99992.53
2022-12-13T15:12:25.122Z,99984.31
2022-12-13T15:14:53.641Z,99989.94
2022-12-13T15:17:21.497Z,99991.88
2022-12-13T15:19:49.323Z,99993.47
2022-12-13T15:22:17.230Z,99994.16
2022-12-13T15:24:47.052Z,99991.63
2022-12-13T15:27:14.765Z,99994.66
2022-12-13T15:29:44.822Z,99996.03
2022-12-13T15:32:12.607Z,99982.88
2022-12-13T15:34:40.424Z,99987.44
2022-12-13T15:37:08.180Z,99987.50
2022-12-13T15:39:55.671Z,99988.75
2022-12-13T15:42:23.449Z,99986.81
2022-12-13T15:44:53.730Z,99986.44
2022-12-13T15:47:28.513Z,99992.91
2022-12-13T15:49:58.816Z,99983.00
2022-12-13T15:52:29.519Z,99985.91
2022-12-13T15:54:57.430Z,99980.78
2022-12-13T15:57:25.131Z,99982.72
2022-12-13T15:59:52.983Z,99977.41
2022-12-13T16:02:20.828Z,99974.97
2022-12-13T16:04:48.587Z,99979.81
2022-12-13T16:07:16.285Z,99977.72
2022-12-13T16:09:43.989Z,99978.72
2022-12-13T16:12:11.705Z,99969.19
2022-12-13T16:14:40.957Z,99967.38
2022-12-13T16:17:17.574Z,99964.28
2022-12-13T16:19:45.500Z,99961.56
2022-12-13T16:22:13.249Z,99957.16
2022-12-13T16:24:41.016Z,99958.34
2022-12-13T16:27:09.126Z,99950.69
2022-12-13T16:29:37.022Z,99946.78
2022-12-13T16:32:08.021Z,99949.75
2022-12-13T16:34:36.744Z,99946.88
2022-12-13T16:37:08.828Z,99955.16
2022-12-13T16:39:52.260Z,99945.47
2022-12-13T16:42:19.968Z,99958.84
2022-12-13T16:44:47.678Z,99954.94
2022-12-13T16:47:24.786Z,99949.56
2022-12-13T16:50:01.649Z,99946.19
2022-12-13T16:52:29.448Z,99950.97
2022-12-13T16:55:00.587Z,99958.50
2022-12-13T16:57:28.339Z,99954.38
2022-12-13T16:59:56.132Z,99951.31
2022-12-13T17:02:24.001Z,99951.88
2022-12-13T17:04:51.954Z,99951.13
2022-12-13T17:07:19.742Z,99945.88
2022-12-13T17:09:49.607Z,99944.91
2022-12-13T17:12:17.771Z,99948.72
2022-12-13T17:14:45.639Z,99948.66
2022-12-13T17:17:17.563Z,99937.88
2022-12-13T17:19:45.903Z,99927.41
2022-12-13T17:22:13.700Z,99935.81
2022-12-13T17:24:41.458Z,99931.91
2022-12-13T17:27:09.666Z,99927.47
2022-12-13T17:29:37.408Z,99930.84
2022-12-13T17:32:05.183Z,99926.88
2022-12-13T17:34:33.113Z,99918.09
2022-12-13T17:37:04.369Z,99929.94
2022-12-13T17:39:34.803Z,99930.50
2022-12-13T17:42:02.601Z,99923.78
2022-12-13T17:44:30.413Z,99929.56
2022-12-13T17:46:58.327Z,99931.50
2022-12-13T17:49:26.109Z,99928.81
2022-12-13T17:51:54.228Z,99932.66
2022-12-13T17:54:22.721Z,99940.50
2022-12-13T17:56:50.625Z,99936.88
2022-12-13T17:59:18.481Z,99936.06
2022-12-13T18:01:46.268Z,99935.41
2022-12-13T18:04:14.051Z,99931.53
2022-12-13T18:06:41.815Z,99929.72
2022-12-13T18:09:09.652Z,99934.72
2022-12-13T18:11:37.739Z,99930.91
2022-12-13T18:14:05.472Z,99929.84
2022-12-13T18:16:38.829Z,99929.22
2022-12-13T18:19:07.247Z,99918.97
2022-12-13T18:21:35.414Z,99928.72
2022-12-13T18:24:03.272Z,99919.19
2022-12-13T18:26:31.088Z,99929.28
2022-12-13T18:28:58.895Z,99930.84
2022-12-13T18:31:28.047Z,99928.16
2022-12-13T18:33:56.023Z,99928.59
2022-12-13T18:36:23.756Z,99928.19
2022-12-13T18:38:51.664Z,99925.34
2022-12-13T18:41:19.511Z,99915.22
2022-12-13T18:43:47.608Z,99911.56
2022-12-13T18:46:15.589Z,99910.66
2022-12-13T18:48:43.544Z,99906.66
2022-12-13T18:51:11.530Z,99909.44
2022-12-13T18:53:39.392Z,99916.50
2022-12-13T18:56:10.427Z,99915.50
2022-12-13T18:58:42.208Z,99917.09
2022-12-13T19:01:10.512Z,99913.50
2022-12-13T19:03:38.332Z,99914.59
2022-12-13T19:06:06.081Z,99913.16
2022-12-13T19:08:34.103Z,99913.59
2022-12-13T19:11:02.131Z,99918.50
2022-12-13T19:13:30.080Z,99913.16
2022-12-13T19:15:58.235Z,99917.91
2022-12-13T19:18:26.152Z,99912.25
2022-12-13T19:20:53.931Z,99907.63
2022-12-13T19:23:21.748Z,99899.47
2022-12-13T19:25:49.588Z,99898.59
2022-12-13T19:28:17.725Z,99902.25
2022-12-13T19:30:45.518Z,99886.75
2022-12-13T19:33:13.447Z,99900.91
2022-12-13T19:35:41.457Z,99898.59
2022-12-13T19:38:09.617Z,99888.66
2022-12-13T19:40:37.569Z,99892.22
2022-12-13T19:43:06.342Z,99887.25
2022-12-13T19:45:34.127Z,99887.31
2022-12-13T19:48:01.965Z,99882.31
2022-12-13T19:50:29.945Z,99877.00
2022-12-13T19:52:57.774Z,99881.06
2022-12-13T19:55:25.546Z,99879.56
2022-12-13T19:57:54.044Z,99876.59
2022-12-13T20:00:21.871Z,99874.44
2022-12-13T20:02:50.562Z,99885.38
2022-12-13T20:05:18.484Z,99886.72
2022-12-13T20:07:46.301Z,99872.84
2022-12-13T20:10:16.362Z,99865.59
2022-12-13T20:12:44.145Z,99864.19
2022-12-13T20:15:12.048Z,99872.59
2022-12-13T20:17:39.927Z,99875.34
2022-12-13T20:20:07.748Z,99869.81
2022-12-13T20:22:35.596Z,99871.78
2022-12-13T20:25:03.405Z,99868.28
2022-12-13T20:27:31.266Z,99872.38
2022-12-13T20:29:59.225Z,99865.72
2022-12-13T20:32:27.172Z,99865.28
2022-12-13T20:34:55.281Z,99860.66
2022-12-13T20:37:23.139Z,99862.28
2022-12-13T20:39:50.976Z,99859.28
2022-12-13T20:42:18.783Z,99853.34
2022-12-13T20:44:46.875Z,99841.38
2022-12-13T20:47:14.731Z,99846.31
2022-12-13T20:49:42.779Z,99841.50
2022-12-13T20:52:17.004Z,99840.66
2022-12-13T20:54:44.809Z,99844.88
2022-12-13T20:57:12.677Z,99847.38
2022-12-13T20:59:40.493Z,99838.22
2022-12-13T21:02:08.477Z,99835.34
2022-12-13T21:04:36.384Z,99841.56
2022-12-13T21:07:04.246Z,99836.19
2022-12-13T21:09:31.961Z,99833.72
2022-12-13T21:11:59.781Z,99831.63
2022-12-13T21:14:28.489Z,99824.09
2022-12-13T21:16:56.315Z,99824.97
2022-12-13T21:19:24.218Z,99818.88
2022-12-13T21:21:52.009Z,99818.69
2022-12-13T21:24:19.876Z,99802.72
2022-12-13T21:26:47.670Z,99801.50
2022-12-13T21:29:16.346Z,99794.56
2022-12-13T21:31:44.358Z,99798.31
2022-12-13T21:34:16.807Z,99796.44
2022-12-13T21:36:44.628Z,99798.53
2022-12-13T21:39:13.944Z,99790.97
2022-12-13T21:41:41.892Z,99792.66
2022-12-13T21:44:09.768Z,99793.28
2022-12-13T21:49:25.382Z,99806.03
2022-12-13T21:51:53.154Z,99801.84
2022-12-13T21:54:20.946Z,99796.41
2022-12-13T21:57:08.619Z,99794.28
2022-12-13T21:59:36.412Z,99788.38
2022-12-13T22:02:14.518Z,99794.41
2022-12-13T22:04:43.584Z,99782.84
2022-12-13T22:07:11.493Z,99788.91
2022-12-13T22:09:39.275Z,99788.69
2022-12-13T22:12:07.188Z,99789.53
2022-12-13T22:14:35.076Z,99788.03
2022-12-13T22:17:02.925Z,99790.53
2022-12-13T22:19:30.843Z,99783.19
2022-12-13T22:21:58.639Z,99782.53
2022-12-13T22:24:26.742Z,99781.06
2022-12-13T22:26:54.518Z,99768.22
2022-12-13T22:29:22.313Z,99772.19
2022-12-13T22:31:50.200Z,99766.72
2022-12-13T22:34:18.131Z,99764.19
2022-12-13T22:36:45.963Z,99762.94
2022-12-13T22:39:13.723Z,99767.94
2022-12-13T22:41:41.536Z,99757.25
2022-12-13T22:44:09.348Z,99758.69
2022-12-13T22:46:37.317Z,99751.97
2022-12-13T22:49:05.206Z,99747.94
2022-12-13T22:51:33.014Z,99745.16
2022-12-13T22:54:00.792Z,99748.91
2022-12-13T22:56:28.625Z,99742.56
2022-12-13T22:58:56.488Z,99741.28
2022-12-13T23:01:24.428Z,99751.53
2022-12-13T23:03:52.202Z,99744.81
2022-12-13T23:06:20.128Z,99744.56
2022-12-13T23:08:48.062Z,99744.97
2022-12-13T23:11:33.615Z,99737.22
2022-12-13T23:14:01.374Z,99731.13
2022-12-13T23:16:29.251Z,99714.56
2022-12-13T23:19:16.922Z,99714.97
2022-12-13T23:21:48.527Z,99715.19
2022-12-13T23:24:16.615Z,99713.50
2022-12-13T23:26:44.607Z,99714.53
2022-12-13T23:29:12.429Z,99711.16
2022-12-13T23:31:40.463Z,99718.28
2022-12-13T23:34:08.273Z,99713.91
2022-12-13T23:36:36.012Z,99710.53
2022-12-13T23:39:04.147Z,99704.44
2022-12-13T23:41:33.971Z,99706.53
2022-12-13T23:44:02.003Z,99698.75
2022-12-13T23:46:30.106Z,99702.50
2022-12-13T23:48:58.042Z,99704.59
2022-12-13T23:51:25.846Z,99692.03
2022-12-13T23:53:53.630Z,99697.47
2022-12-13T23:56:21.407Z,99702.25
2022-12-13T23:58:49.264Z,99696.19
